Time;durP1;ratioP1;P1;durP2;ratioP2;P2;SDS_P1;SDS_P2;PMS_P1;PMS_P2;Temp;Humidity;BMP_temperature;BMP_pressure;BME280_temperature;BME280_humidity;BME280_pressure;Samples;Min_cycle;Max_cycle;Signal;HPM_P1;HPM_P2
2021/07/06 00:01:52;;;;;;;2.92;2.53;;;;;;;19.34;100.00;100120.22;4974714;28;20276;-79
2021/07/06 00:04:17;;;;;;;2.80;2.60;;;;;;;19.34;100.00;100106.44;4982731;28;20382;-78
2021/07/06 00:06:46;;;;;;;4.07;2.60;;;;;;;19.25;100.00;100111.25;4975642;28;20221;-79
2021/07/06 00:09:11;;;;;;;4.72;2.30;;;;;;;19.17;100.00;100109.38;5006059;28;20655;-78
2021/07/06 00:11:39;;;;;;;2.80;2.40;;;;;;;19.20;100.00;100105.97;4979693;28;20316;-78
2021/07/06 00:14:07;;;;;;;2.83;2.63;;;;;;;19.27;100.00;100108.97;4997424;28;20182;-78
2021/07/06 00:16:35;;;;;;;2.85;2.53;;;;;;;19.36;100.00;100101.41;4980380;28;20264;-78
2021/07/06 00:19:00;;;;;;;3.00;2.47;;;;;;;19.23;100.00;100105.28;4983316;28;20703;-78
2021/07/06 00:21:26;;;;;;;3.13;2.63;;;;;;;19.28;100.00;100099.53;4973801;28;20232;-77
2021/07/06 00:23:52;;;;;;;2.58;2.38;;;;;;;19.28;100.00;100100.34;4961926;28;20327;-77
2021/07/06 00:26:18;;;;;;;2.83;2.63;;;;;;;19.21;100.00;100110.34;4992437;28;20233;-79
2021/07/06 00:28:51;;;;;;;2.88;2.63;;;;;;;19.19;100.00;100112.59;4995225;28;20197;-77
2021/07/06 00:31:22;;;;;;;3.00;2.72;;;;;;;19.25;100.00;100105.75;4977592;28;20233;-78
2021/07/06 00:33:48;;;;;;;2.72;2.53;;;;;;;19.24;100.00;100104.13;4979388;28;20821;-78
2021/07/06 00:36:16;;;;;;;2.83;2.55;;;;;;;19.08;100.00;100105.13;4981713;28;20211;-78
2021/07/06 00:38:42;;;;;;;2.90;2.70;;;;;;;19.16;100.00;100107.00;4978145;28;20218;-78
2021/07/06 00:41:08;;;;;;;2.80;2.60;;;;;;;19.25;100.00;100094.72;4976458;28;20229;-79
2021/07/06 00:43:36;;;;;;;3.70;2.90;;;;;;;19.28;100.00;100096.78;4978239;28;20286;-78
2021/07/06 00:46:02;;;;;;;3.45;2.45;;;;;;;19.29;100.00;100095.66;4994583;28;20217;-78
2021/07/06 00:48:27;;;;;;;3.72;2.30;;;;;;;19.23;100.00;100091.50;4978407;28;20982;-78
2021/07/06 00:50:56;;;;;;;2.60;2.40;;;;;;;19.19;100.00;100081.50;4992568;28;20253;-78
2021/07/06 00:53:22;;;;;;;2.25;2.05;;;;;;;19.23;100.00;100080.50;4978545;28;20202;-79
2021/07/06 00:55:53;;;;;;;3.05;2.40;;;;;;;19.19;100.00;100081.50;4995203;28;20229;-79
2021/07/06 00:58:18;;;;;;;3.65;2.20;;;;;;;19.11;100.00;100074.97;4994297;28;20563;-79
2021/07/06 01:00:46;;;;;;;2.78;2.40;;;;;;;19.18;100.00;100072.44;4992450;28;20247;-79
2021/07/06 01:03:14;;;;;;;3.13;2.88;;;;;;;19.16;100.00;100074.75;4977810;28;20178;-78
2021/07/06 01:05:39;;;;;;;3.13;2.30;;;;;;;19.23;100.00;100080.50;4987393;28;20220;-78
2021/07/06 01:08:10;;;;;;;2.70;2.40;;;;;;;19.12;100.00;100073.81;4977318;28;20240;-77
2021/07/06 01:10:38;;;;;;;2.78;2.58;;;;;;;19.17;100.00;100067.28;4992912;28;20240;-77
2021/07/06 01:13:08;;;;;;;3.22;2.97;;;;;;;19.12;100.00;100070.25;4993783;28;20201;-77
2021/07/06 01:15:38;;;;;;;2.65;2.45;;;;;;;19.22;100.00;100067.06;5009066;28;20217;-76
2021/07/06 01:18:13;;;;;;;3.30;2.25;;;;;;;19.20;100.00;100061.09;4976384;28;20300;-77
2021/07/06 01:20:50;;;;;;;3.95;2.50;;;;;;;19.15;100.00;100067.63;4972969;28;20222;-77
2021/07/06 01:23:20;;;;;;;4.50;2.60;;;;;;;19.09;100.00;100069.00;4988422;28;20647;-77
2021/07/06 01:25:53;;;;;;;2.72;2.40;;;;;;;19.16;100.00;100063.72;4992754;28;20277;-78
2021/07/06 01:28:18;;;;;;;3.10;2.50;;;;;;;19.24;100.00;100062.81;4993293;28;20300;-77
2021/07/06 01:30:49;;;;;;;2.70;2.50;;;;;;;19.23;100.00;100061.22;4989164;28;20214;-78
2021/07/06 01:33:26;;;;;;;2.67;2.47;;;;;;;19.19;100.00;100049.25;4974374;28;20214;-77
2021/07/06 01:36:00;;;;;;;2.65;2.45;;;;;;;19.13;100.00;100042.38;4996882;28;20295;-77
2021/07/06 01:38:28;;;;;;;2.65;2.45;;;;;;;19.14;100.00;100046.75;4997797;28;20204;-78
2021/07/06 01:40:55;;;;;;;3.17;2.30;;;;;;;19.09;100.00;100041.47;4978472;28;20317;-76
2021/07/06 01:43:23;;;;;;;2.40;2.25;;;;;;;18.99;100.00;100044.66;4951334;28;20288;-77
2021/07/06 01:45:51;;;;;;;2.92;2.30;;;;;;;19.08;100.00;100042.63;4999476;28;20237;-77
2021/07/06 01:48:17;;;;;;;2.85;2.30;;;;;;;19.13;100.00;100047.88;4976229;28;20227;-77
2021/07/06 01:50:43;;;;;;;3.00;2.13;;;;;;;19.13;100.00;100036.88;4970156;28;20248;-77
2021/07/06 01:53:16;;;;;;;2.67;2.47;;;;;;;19.14;100.00;100034.91;4956183;28;20779;-77
2021/07/06 01:55:46;;;;;;;2.88;2.45;;;;;;;19.13;100.00;100036.88;4949494;28;21210;-78
2021/07/06 01:58:15;;;;;;;2.60;2.40;;;;;;;19.01;100.00;100038.78;4976668;28;20206;-77
2021/07/06 02:00:51;;;;;;;3.83;2.53;;;;;;;19.14;100.00;100035.72;4955901;28;20999;-77
2021/07/06 02:03:17;;;;;;;3.22;2.40;;;;;;;19.03;100.00;100034.56;4941461;28;20198;-77
2021/07/06 02:05:43;;;;;;;3.00;2.70;;;;;;;19.22;100.00;100025.75;4983456;28;20221;-77
2021/07/06 02:08:19;;;;;;;2.90;2.60;;;;;;;19.22;100.00;100028.50;4992324;28;20198;-78
2021/07/06 02:10:45;;;;;;;2.45;2.35;;;;;;;19.16;100.00;100029.88;4958260;28;20228;-77
2021/07/06 02:13:15;;;;;;;3.72;2.47;;;;;;;19.18;100.00;100033.09;4976569;28;20205;-77
2021/07/06 02:15:44;;;;;;;2.70;2.25;;;;;;;19.26;100.00;100024.72;4972043;28;20226;-76
2021/07/06 02:18:15;;;;;;;2.45;2.25;;;;;;;19.34;100.00;100015.53;4955342;28;20661;-77
2021/07/06 02:20:43;;;;;;;2.70;2.30;;;;;;;19.18;100.00;100009.09;4958697;28;20708;-77
2021/07/06 02:23:09;;;;;;;2.53;2.20;;;;;;;19.27;100.00;100010.59;4969297;28;20192;-77
2021/07/06 02:25:36;;;;;;;3.28;2.30;;;;;;;19.20;100.00;100004.06;4974828;28;20232;-77
2021/07/06 02:28:05;;;;;;;2.58;2.33;;;;;;;19.22;100.00;99992.69;5007105;28;20644;-77
2021/07/06 02:30:36;;;;;;;2.00;1.90;;;;;;;19.10;100.00;99998.19;4990354;28;20213;-78
2021/07/06 02:33:02;;;;;;;2.20;2.00;;;;;;;18.97;100.00;100002.91;4991408;28;20221;-77
2021/07/06 02:35:32;;;;;;;2.17;2.08;;;;;;;19.00;100.00;100002.22;4981494;28;20214;-77
2021/07/06 02:37:58;;;;;;;2.42;1.92;;;;;;;19.02;100.00;100001.88;4991417;28;20210;-77
2021/07/06 02:40:26;;;;;;;3.67;1.90;;;;;;;19.00;100.00;100004.97;4974534;28;20227;-76
2021/07/06 02:42:54;;;;;;;2.80;1.80;;;;;;;19.15;100.00;100006.22;4992104;28;20256;-78
2021/07/06 02:45:24;;;;;;;3.85;2.00;;;;;;;19.02;100.00;100002.66;4990859;28;20182;-78
2021/07/06 02:47:50;;;;;;;2.28;1.90;;;;;;;19.04;100.00;100011.38;4991590;28;20194;-78
2021/07/06 02:50:17;;;;;;;1.88;1.77;;;;;;;19.02;100.00;100007.38;4967728;28;20734;-78
2021/07/06 02:52:43;;;;;;;4.32;1.75;;;;;;;19.05;100.00;100007.50;4971163;28;20225;-78
2021/07/06 02:55:09;;;;;;;2.00;1.80;;;;;;;19.03;100.00;100009.78;4988332;28;20182;-78
2021/07/06 02:57:39;;;;;;;3.55;2.25;;;;;;;19.09;100.00;100016.66;4991635;28;20196;-78
2021/07/06 03:00:28;;;;;;;2.88;1.98;;;;;;;19.12;100.00;100013.25;4990847;28;20227;-78
2021/07/06 03:02:58;;;;;;;2.08;1.88;;;;;;;19.17;100.00;99996.47;4977212;28;20301;-77
2021/07/06 03:05:25;;;;;;;3.40;1.75;;;;;;;18.99;100.00;99992.34;4981813;28;20186;-77
2021/07/06 03:07:53;;;;;;;1.85;1.75;;;;;;;19.03;100.00;99979.50;4994745;28;20248;-77
2021/07/06 03:10:35;;;;;;;2.00;1.90;;;;;;;19.07;100.00;99980.41;4974513;28;20694;-77
2021/07/06 03:13:01;;;;;;;2.20;2.00;;;;;;;19.07;100.00;99983.19;4958369;28;20233;-78
2021/07/06 03:15:27;;;;;;;2.55;2.15;;;;;;;18.93;100.00;99981.88;4985317;28;20652;-78
2021/07/06 03:17:53;;;;;;;2.40;1.95;;;;;;;19.04;100.00;99972.84;4992561;28;20678;-77
2021/07/06 03:20:26;;;;;;;1.95;1.80;;;;;;;19.16;100.00;99980.31;4967954;28;20254;-78
2021/07/06 03:22:51;;;;;;;2.00;1.77;;;;;;;18.96;100.00;99981.19;4960879;28;20178;-77
2021/07/06 03:25:18;;;;;;;2.10;1.90;;;;;;;18.99;100.00;99986.84;4973203;28;20173;-77
2021/07/06 03:27:48;;;;;;;2.83;1.80;;;;;;;19.02;100.00;99979.84;4992078;28;20218;-77
2021/07/06 03:30:18;;;;;;;2.80;2.10;;;;;;;19.01;100.00;99994.75;4959403;28;20193;-77
2021/07/06 03:32:43;;;;;;;2.17;1.83;;;;;;;18.96;100.00;99993.00;4991331;28;20217;-78
2021/07/06 03:35:09;;;;;;;1.58;1.48;;;;;;;18.92;100.00;99988.53;4998303;28;20243;-78
2021/07/06 03:37:37;;;;;;;2.45;1.70;;;;;;;19.01;100.00;100001.06;4981847;28;20675;-77
2021/07/06 03:40:04;;;;;;;4.00;1.80;;;;;;;18.87;100.00;99998.97;4973624;28;20266;-76
2021/07/06 03:42:30;;;;;;;3.15;1.67;;;;;;;18.94;100.00;100006.31;4975860;28;20177;-76
2021/07/06 03:44:58;;;;;;;2.33;1.80;;;;;;;18.94;100.00;99991.75;4971782;28;20197;-76
2021/07/06 03:47:24;;;;;;;1.90;1.80;;;;;;;19.08;100.00;100001.31;4991803;28;20221;-77
2021/07/06 03:49:49;;;;;;;3.05;1.75;;;;;;;19.00;100.00;99996.69;5002101;28;20213;-77
2021/07/06 03:52:15;;;;;;;3.28;1.60;;;;;;;18.91;100.00;99990.47;4980266;28;20237;-77
2021/07/06 03:54:46;;;;;;;2.88;1.73;;;;;;;18.98;100.00;99996.25;4995336;28;20204;-77
2021/07/06 03:57:14;;;;;;;2.22;1.77;;;;;;;18.97;100.00;99988.31;4968515;28;20222;-79
2021/07/06 03:59:44;;;;;;;2.05;1.85;;;;;;;19.20;100.00;99984.78;5000053;28;20206;-78
2021/07/06 04:02:10;;;;;;;2.17;1.80;;;;;;;19.04;100.00;99975.59;4979049;28;20220;-78
2021/07/06 04:04:35;;;;;;;2.15;1.55;;;;;;;19.12;100.00;99974.69;4967457;28;20190;-78
2021/07/06 04:07:01;;;;;;;2.83;1.67;;;;;;;19.10;100.00;99982.50;4986947;28;20218;-79
2021/07/06 04:09:29;;;;;;;1.90;1.80;;;;;;;19.25;100.00;99986.47;4964836;28;20439;-79
2021/07/06 04:11:59;;;;;;;3.40;1.98;;;;;;;19.13;100.00;99992.81;4996223;28;20240;-78
2021/07/06 04:14:25;;;;;;;2.10;1.90;;;;;;;19.23;100.00;99995.13;4981694;28;20268;-79
2021/07/06 04:16:53;;;;;;;2.00;1.80;;;;;;;19.09;100.00;99991.88;4996098;28;20225;-78
2021/07/06 04:19:18;;;;;;;2.17;1.67;;;;;;;19.20;100.00;99982.03;4963491;28;20231;-79
2021/07/06 04:21:51;;;;;;;2.63;1.70;;;;;;;19.34;100.00;99982.50;4976410;28;20218;-78
2021/07/06 04:24:17;;;;;;;2.20;2.00;;;;;;;19.30;100.00;99981.56;4995213;28;20687;-78
2021/07/06 04:26:44;;;;;;;1.88;1.65;;;;;;;19.35;100.00;99978.56;4996498;28;20237;-79
2021/07/06 04:29:12;;;;;;;2.08;1.60;;;;;;;19.49;100.00;99973.50;4976524;28;20676;-79
2021/07/06 04:31:38;;;;;;;2.47;1.80;;;;;;;19.44;100.00;99965.47;4990587;28;20654;-80
2021/07/06 04:34:06;;;;;;;2.75;1.70;;;;;;;19.48;100.00;99967.19;4991839;28;20185;-79
2021/07/06 04:36:34;;;;;;;2.72;1.67;;;;;;;19.68;100.00;99956.00;5005593;28;20235;-77
2021/07/06 04:39:00;;;;;;;1.70;1.60;;;;;;;19.77;100.00;99953.91;4965168;28;20754;-79
2021/07/06 04:41:26;;;;;;;2.40;1.60;;;;;;;19.72;100.00;99956.94;4957516;28;20226;-78
2021/07/06 04:43:51;;;;;;;2.13;1.70;;;;;;;19.90;100.00;99951.94;4987734;28;20284;-79
2021/07/06 04:46:19;;;;;;;1.88;1.52;;;;;;;19.86;100.00;99951.03;4994708;28;20225;-78
2021/07/06 04:48:47;;;;;;;2.25;1.40;;;;;;;19.70;100.00;99959.19;4992087;28;20257;-79
2021/07/06 04:51:14;;;;;;;2.05;1.45;;;;;;;19.72;100.00;99956.94;4964625;28;20218;-79
2021/07/06 04:53:44;;;;;;;3.55;1.65;;;;;;;19.91;100.00;99948.84;5010261;28;20205;-77
2021/07/06 04:56:12;;;;;;;2.75;1.50;;;;;;;20.03;100.00;99951.53;4979058;28;20222;-79
2021/07/06 04:58:41;;;;;;;2.92;1.65;;;;;;;20.28;100.00;99939.25;4995604;28;20205;-78
2021/07/06 05:01:12;;;;;;;2.22;1.70;;;;;;;20.37;100.00;99951.72;4979739;28;20226;-77
2021/07/06 05:03:37;;;;;;;1.63;1.50;;;;;;;20.30;100.00;99950.75;5013031;28;20193;-77
2021/07/06 05:06:03;;;;;;;1.58;1.35;;;;;;;20.52;100.00;99957.25;5027638;28;20263;-78
2021/07/06 05:08:28;;;;;;;2.10;1.50;;;;;;;20.51;100.00;99963.97;5010857;28;20232;-78
2021/07/06 05:10:57;;;;;;;1.67;1.40;;;;;;;20.86;100.00;99959.38;5000924;28;20230;-78
2021/07/06 05:13:25;;;;;;;1.55;1.20;;;;;;;20.74;100.00;99959.44;5005577;28;20302;-77
2021/07/06 05:15:51;;;;;;;2.30;1.23;;;;;;;20.64;100.00;99965.50;4983038;28;20309;-76
2021/07/06 05:18:19;;;;;;;2.22;1.42;;;;;;;20.88;100.00;99966.16;4980772;28;20295;-77
2021/07/06 05:20:48;;;;;;;12.40;9.70;;;;;;;20.76;100.00;99983.97;4995575;28;20218;-79
2021/07/06 05:23:13;;;;;;;9.27;8.32;;;;;;;20.90;100.00;99977.63;4993294;28;20174;-78
2021/07/06 05:25:39;;;;;;;1.77;1.38;;;;;;;20.95;100.00;99977.38;4988185;28;20237;-78
2021/07/06 05:28:05;;;;;;;1.55;1.20;;;;;;;20.81;100.00;99980.94;5004434;28;20198;-77
2021/07/06 05:30:30;;;;;;;2.25;1.13;;;;;;;20.97;100.00;99985.28;5026788;28;20239;-78
2021/07/06 05:32:58;;;;;;;1.35;1.25;;;;;;;20.85;100.00;99985.38;5001983;28;20218;-78
2021/07/06 05:35:24;;;;;;;1.50;0.90;;;;;;;20.95;100.00;99985.66;5002752;28;20228;-77
2021/07/06 05:37:55;;;;;;;2.10;1.42;;;;;;;20.90;100.00;99983.16;4977447;28;20627;-76
2021/07/06 05:40:22;;;;;;;2.50;2.30;;;;;;;21.10;100.00;99973.81;4989239;28;20261;-76
2021/07/06 05:42:50;;;;;;;2.13;1.20;;;;;;;21.26;100.00;99980.09;4991378;28;20292;-77
2021/07/06 05:45:18;;;;;;;1.48;0.95;;;;;;;21.42;100.00;99981.72;4995688;28;20190;-78
2021/07/06 05:47:46;;;;;;;2.80;0.90;;;;;;;21.23;100.00;99970.56;4982392;28;20210;-79
2021/07/06 05:50:14;;;;;;;1.10;0.90;;;;;;;21.24;100.00;99966.66;4980646;28;20214;-77
2021/07/06 05:52:40;;;;;;;3.55;1.20;;;;;;;21.51;100.00;99960.19;4949867;28;20257;-78
2021/07/06 05:55:08;;;;;;;3.95;1.15;;;;;;;21.58;100.00;99949.31;4972427;28;20197;-79
2021/07/06 05:57:36;;;;;;;1.13;1.02;;;;;;;21.81;100.00;99941.91;4994055;28;20268;-77
2021/07/06 06:00:07;;;;;;;1.65;1.00;;;;;;;22.03;100.00;99948.31;4975452;28;20214;-78
2021/07/06 06:02:34;;;;;;;2.05;0.90;;;;;;;22.13;100.00;99950.50;4991909;28;20685;-78
2021/07/06 06:05:06;;;;;;;1.88;0.85;;;;;;;22.20;100.00;99941.56;5002237;28;20470;-79
2021/07/06 06:07:39;;;;;;;1.73;0.90;;;;;;;22.10;100.00;99928.28;4976773;28;20226;-78
2021/07/06 06:10:06;;;;;;;1.20;0.90;;;;;;;21.98;100.00;99924.84;4980685;28;20662;-77
2021/07/06 06:12:32;;;;;;;2.45;1.00;;;;;;;21.98;100.00;99930.41;4975593;28;20206;-78
2021/07/06 06:15:00;;;;;;;1.80;1.00;;;;;;;22.05;100.00;99932.16;4994617;28;20192;-77
2021/07/06 06:17:25;;;;;;;0.88;0.88;;;;;;;22.12;100.00;99948.91;4977387;28;20278;-78
2021/07/06 06:19:53;;;;;;;1.77;0.90;;;;;;;22.03;100.00;99944.72;4997520;28;20619;-78
2021/07/06 06:22:19;;;;;;;3.58;0.95;;;;;;;22.17;100.00;99926.47;4985343;28;20281;-78
2021/07/06 06:24:46;;;;;;;1.40;0.90;;;;;;;22.23;100.00;99927.78;4999192;28;20198;-78
2021/07/06 06:27:15;;;;;;;2.08;0.98;;;;;;;22.29;100.00;99929.09;4998690;28;20582;-78
2021/07/06 06:29:41;;;;;;;0.80;0.80;;;;;;;22.33;100.00;99937.47;4983021;28;20205;-79
2021/07/06 06:32:09;;;;;;;1.25;0.80;;;;;;;22.49;100.00;99930.66;4997218;28;20232;-79
2021/07/06 06:34:35;;;;;;;1.30;0.90;;;;;;;22.55;100.00;99918.13;4972743;28;20190;-78
2021/07/06 06:37:00;;;;;;;1.30;0.70;;;;;;;22.53;100.00;99920.47;4965570;28;20256;-78
2021/07/06 06:39:28;;;;;;;1.70;0.70;;;;;;;22.71;100.00;99927.09;4976757;28;20248;-78
2021/07/06 06:41:56;;;;;;;0.80;0.80;;;;;;;22.87;100.00;99929.38;4977414;28;20213;-78
2021/07/06 06:44:22;;;;;;;1.02;0.80;;;;;;;23.36;100.00;99927.41;4979094;28;20201;-76
2021/07/06 06:46:50;;;;;;;1.85;0.88;;;;;;;23.10;100.00;99923.84;4971777;28;20230;-77
2021/07/06 06:49:15;;;;;;;2.10;0.77;;;;;;;22.96;100.00;99932.72;4959262;28;20714;-77
2021/07/06 06:51:41;;;;;;;1.75;0.70;;;;;;;23.09;100.00;99928.56;4975269;28;20213;-77
2021/07/06 06:54:12;;;;;;;1.67;0.77;;;;;;;23.39;100.00;99926.66;4957214;28;20190;-78
2021/07/06 06:56:45;;;;;;;2.60;1.00;;;;;;;23.56;100.00;99922.16;4990412;28;20221;-77
2021/07/06 06:59:14;;;;;;;1.38;0.85;;;;;;;23.60;100.00;99933.34;4992757;28;20205;-77
2021/07/06 07:01:44;;;;;;;3.13;0.80;;;;;;;23.71;100.00;99929.53;4975192;28;20670;-77
2021/07/06 07:04:14;;;;;;;0.90;0.90;;;;;;;23.90;100.00;99929.41;4967450;28;20217;-77
2021/07/06 07:06:42;;;;;;;1.45;0.90;;;;;;;23.93;100.00;99930.59;4974751;28;20268;-78
2021/07/06 07:09:12;;;;;;;2.05;0.90;;;;;;;24.36;100.00;99915.69;4973935;28;20257;-80
2021/07/06 07:11:37;;;;;;;0.90;0.90;;;;;;;24.26;100.00;99923.06;4975818;28;20229;-77
2021/07/06 07:14:07;;;;;;;2.72;1.23;;;;;;;24.34;100.00;99928.38;4992605;28;20213;-78
2021/07/06 07:16:35;;;;;;;1.70;0.93;;;;;;;24.48;100.00;99929.28;4993485;28;20247;-78
2021/07/06 07:19:04;;;;;;;1.80;0.90;;;;;;;24.55;98.73;99926.59;4992647;28;20216;-79
2021/07/06 07:21:32;;;;;;;0.90;0.80;;;;;;;24.82;97.32;99928.06;4986905;28;20261;-78
2021/07/06 07:24:00;;;;;;;0.95;0.77;;;;;;;25.20;95.04;99920.03;4943414;28;20194;-77
2021/07/06 07:26:28;;;;;;;0.80;0.70;;;;;;;24.96;95.20;99925.41;5000325;28;20217;-79
2021/07/06 07:28:57;;;;;;;1.08;0.98;;;;;;;25.39;92.80;99917.78;4977724;28;20275;-79
2021/07/06 07:31:22;;;;;;;1.38;0.93;;;;;;;25.38;90.89;99921.75;4973173;28;20224;-79
2021/07/06 07:33:48;;;;;;;1.30;0.88;;;;;;;25.66;91.58;99927.53;4995647;28;20672;-78
2021/07/06 07:36:16;;;;;;;0.77;0.77;;;;;;;25.87;90.18;99922.06;5004374;28;20228;-78
2021/07/06 07:38:46;;;;;;;1.55;0.70;;;;;;;25.43;88.44;99924.19;4982952;28;20582;-77
2021/07/06 07:41:12;;;;;;;0.88;0.88;;;;;;;25.52;90.23;99921.06;4980927;28;20773;-78
2021/07/06 07:43:38;;;;;;;2.85;0.82;;;;;;;25.43;91.44;99913.03;4998824;28;20192;-78
2021/07/06 07:46:05;;;;;;;2.22;0.90;;;;;;;25.61;91.80;99914.00;4998247;28;20221;-78
2021/07/06 07:48:31;;;;;;;2.05;0.90;;;;;;;25.43;91.33;99924.19;4999921;28;20352;-78
2021/07/06 07:50:57;;;;;;;2.17;0.85;;;;;;;25.45;93.47;99932.13;4986075;28;20213;-78
2021/07/06 07:53:24;;;;;;;1.35;0.90;;;;;;;24.95;94.25;99923.81;4983584;28;20754;-79
2021/07/06 07:55:53;;;;;;;1.25;0.80;;;;;;;25.35;92.24;99910.63;4976110;28;20308;-78
2021/07/06 07:58:21;;;;;;;1.40;0.85;;;;;;;24.88;93.59;99918.16;5011361;28;20215;-78
2021/07/06 08:00:49;;;;;;;1.02;0.82;;;;;;;25.05;92.24;99911.97;5017474;28;20216;-78
2021/07/06 08:03:15;;;;;;;1.73;0.90;;;;;;;25.39;92.93;99915.00;4999702;28;20185;-79
2021/07/06 08:05:42;;;;;;;1.10;1.00;;;;;;;25.53;87.89;99917.91;4989486;28;20233;-78
2021/07/06 08:08:10;;;;;;;1.40;0.88;;;;;;;26.01;88.93;99909.81;4999696;28;20724;-79
2021/07/06 08:10:38;;;;;;;0.95;0.75;;;;;;;26.10;85.35;99921.38;4996533;28;20217;-77
2021/07/06 08:13:06;;;;;;;1.17;1.08;;;;;;;25.73;83.43;99916.44;4997821;28;20205;-77
2021/07/06 08:15:32;;;;;;;1.02;0.90;;;;;;;25.94;82.34;99912.56;4981634;28;20217;-77
2021/07/06 08:17:57;;;;;;;1.88;0.80;;;;;;;25.83;85.60;99915.69;4976207;28;20214;-78
2021/07/06 08:20:28;;;;;;;2.58;0.80;;;;;;;25.81;82.37;99916.09;4973209;28;20214;-78
2021/07/06 08:22:56;;;;;;;1.73;0.80;;;;;;;25.54;85.36;99903.56;4985251;28;20186;-78
2021/07/06 08:25:24;;;;;;;2.97;0.80;;;;;;;25.55;85.72;99909.97;4967050;28;20186;-78
2021/07/06 08:27:49;;;;;;;3.40;1.00;;;;;;;25.83;84.78;99899.00;4993209;28;20300;-78
2021/07/06 08:30:17;;;;;;;0.80;0.80;;;;;;;25.83;84.78;99897.00;4981219;28;20248;-77
2021/07/06 08:32:43;;;;;;;4.22;1.63;;;;;;;25.82;86.03;99898.16;4967636;28;20201;-79
2021/07/06 08:35:10;;;;;;;1.73;0.77;;;;;;;25.99;83.94;99905.81;4987223;28;20866;-78
2021/07/06 08:37:36;;;;;;;1.17;0.90;;;;;;;25.94;84.71;99911.75;4984937;28;20196;-77
2021/07/06 08:40:02;;;;;;;1.90;0.88;;;;;;;25.90;85.15;99921.28;4977917;28;20187;-78
2021/07/06 08:42:31;;;;;;;2.22;0.90;;;;;;;25.73;87.15;99933.13;4976801;28;20256;-78
2021/07/06 08:45:01;;;;;;;2.42;0.85;;;;;;;25.55;85.12;99938.56;5000022;28;20281;-78
2021/07/06 08:47:32;;;;;;;2.05;1.10;;;;;;;25.20;88.72;99943.09;4995686;28;20294;-78
2021/07/06 08:49:57;;;;;;;1.17;0.80;;;;;;;25.25;88.48;99939.94;4990734;28;20186;-78
2021/07/06 08:52:25;;;;;;;1.33;0.80;;;;;;;25.21;88.82;99953.03;4991012;28;20294;-76
2021/07/06 08:54:51;;;;;;;2.20;0.90;;;;;;;25.46;86.98;99951.22;4964566;28;20169;-78
2021/07/06 08:57:21;;;;;;;2.60;0.90;;;;;;;25.76;86.34;99940.72;4978951;28;20714;-78
2021/07/06 08:59:49;;;;;;;2.63;0.90;;;;;;;25.96;89.23;99943.59;4979801;28;20229;-78
2021/07/06 09:02:19;;;;;;;2.47;0.75;;;;;;;26.39;80.64;99937.00;4993988;28;20224;-78
2021/07/06 09:04:46;;;;;;;1.90;0.85;;;;;;;26.32;76.78;99937.00;5002846;28;20281;-78
2021/07/06 09:07:13;;;;;;;0.80;0.80;;;;;;;26.44;78.24;99933.84;4984249;28;20230;-79
2021/07/06 09:09:39;;;;;;;1.50;1.10;;;;;;;27.01;77.62;99937.13;4942929;28;20206;-78
2021/07/06 09:12:10;;;;;;;1.83;0.90;;;;;;;27.35;77.03;99938.31;4959596;28;20218;-78
2021/07/06 09:14:41;;;;;;;2.97;0.95;;;;;;;27.30;75.44;99939.50;4993879;28;20299;-78
2021/07/06 09:17:17;;;;;;;2.97;1.00;;;;;;;27.11;75.19;99941.94;4992858;28;20233;-78
2021/07/06 09:19:44;;;;;;;2.50;0.93;;;;;;;27.22;77.36;99935.13;4992614;28;20240;-78
2021/07/06 09:22:18;;;;;;;1.17;1.08;;;;;;;27.48;74.24;99938.31;4979127;28;20209;-78
2021/07/06 09:24:48;;;;;;;0.80;0.70;;;;;;;27.98;70.06;99934.97;4995031;28;20213;-78
2021/07/06 09:27:35;;;;;;;2.10;0.90;;;;;;;27.83;71.85;99937.44;4977277;28;20360;-79
2021/07/06 09:30:14;;;;;;;2.22;0.90;;;;;;;28.07;69.63;99942.97;4978893;28;20545;-79
2021/07/06 09:32:43;;;;;;;1.27;0.70;;;;;;;28.09;68.48;99940.56;4999111;28;20285;-79
2021/07/06 09:35:35;;;;;;;1.65;0.90;;;;;;;28.07;69.13;99938.16;5008228;28;20209;-77
2021/07/06 09:38:02;;;;;;;2.95;0.80;;;;;;;27.60;71.55;99949.09;4967000;28;20214;-78
2021/07/06 09:40:37;;;;;;;2.83;0.80;;;;;;;26.74;70.25;99941.47;4996394;28;20214;-80
2021/07/06 09:43:15;;;;;;;1.30;0.82;;;;;;;26.26;74.35;99951.69;4980351;28;20305;-78
2021/07/06 09:45:41;;;;;;;3.28;0.90;;;;;;;26.31;74.32;99957.69;4994327;28;20655;-78
2021/07/06 09:48:07;;;;;;;2.72;0.93;;;;;;;26.54;73.75;99947.03;4991198;28;20206;-78
2021/07/06 09:50:35;;;;;;;0.95;0.80;;;;;;;26.80;74.74;99959.41;4986425;28;20241;-79
2021/07/06 09:53:04;;;;;;;0.93;0.88;;;;;;;26.94;72.68;99962.25;4995054;28;20209;-78
2021/07/06 09:55:30;;;;;;;1.27;0.85;;;;;;;26.75;72.81;99957.00;4994716;28;20225;-78
2021/07/06 09:57:58;;;;;;;3.38;1.00;;;;;;;26.50;76.29;99949.78;4994772;28;20210;-77
2021/07/06 10:00:24;;;;;;;3.75;0.95;;;;;;;26.31;77.83;99960.47;4992291;28;20382;-79
2021/07/06 10:02:58;;;;;;;1.52;1.10;;;;;;;25.78;74.66;99957.81;4994653;28;20651;-79
2021/07/06 10:05:24;;;;;;;1.45;1.08;;;;;;;25.59;77.97;99969.25;5001877;28;20208;-78
2021/07/06 10:07:52;;;;;;;1.75;0.70;;;;;;;25.17;80.33;99970.88;4978715;28;20232;-77
2021/07/06 10:10:19;;;;;;;1.45;1.10;;;;;;;25.29;79.70;99970.56;4957155;28;20232;-78
2021/07/06 10:12:53;;;;;;;4.03;1.15;;;;;;;24.98;81.61;99971.13;4991319;28;20210;-78
2021/07/06 10:15:20;;;;;;;1.25;0.80;;;;;;;24.86;82.47;99965.81;4943437;28;20209;-78
2021/07/06 10:17:46;;;;;;;4.18;1.20;;;;;;;24.88;83.45;99976.53;4973009;28;20206;-77
2021/07/06 10:20:18;;;;;;;1.52;1.10;;;;;;;24.90;85.21;99988.88;4965994;28;20194;-77
2021/07/06 10:22:44;;;;;;;1.00;1.00;;;;;;;25.07;84.95;99984.69;4980176;28;20201;-77
2021/07/06 10:25:13;;;;;;;1.95;1.00;;;;;;;25.14;86.07;99983.56;4984138;28;20832;-78
2021/07/06 10:27:50;;;;;;;1.02;1.00;;;;;;;25.44;85.96;99987.00;5006640;28;20178;-78
2021/07/06 10:30:18;;;;;;;2.20;1.10;;;;;;;25.50;84.64;99990.22;4980102;28;20189;-77
2021/07/06 10:32:52;;;;;;;2.70;1.00;;;;;;;25.86;84.45;99992.84;4995898;28;20220;-78
2021/07/06 10:35:46;;;;;;;1.08;1.00;;;;;;;25.60;83.43;99996.69;4973007;28;20871;-78
2021/07/06 10:38:27;;;;;;;3.42;1.10;;;;;;;25.51;83.00;100006.50;4946172;28;20225;-78
2021/07/06 10:40:53;;;;;;;2.20;1.10;;;;;;;25.32;85.27;100001.19;4972881;28;20229;-78
2021/07/06 10:43:31;;;;;;;2.88;0.90;;;;;;;25.64;85.66;100007.81;4974555;28;20190;-77
2021/07/06 10:46:15;;;;;;;1.13;1.02;;;;;;;25.37;89.55;99997.28;4993536;28;20248;-78
2021/07/06 10:48:43;;;;;;;1.58;0.90;;;;;;;25.50;88.11;99995.78;4977633;28;20244;-78
2021/07/06 10:51:09;;;;;;;1.88;1.20;;;;;;;25.51;88.25;99991.78;4978110;28;20217;-77
2021/07/06 10:53:35;;;;;;;2.30;1.15;;;;;;;25.32;88.92;99981.72;4974389;28;20210;-78
2021/07/06 10:56:12;;;;;;;1.35;1.10;;;;;;;25.09;90.70;99973.97;4990517;28;20241;-77
2021/07/06 10:58:53;;;;;;;1.23;1.10;;;;;;;25.03;91.90;99950.50;4974765;28;20697;-77
2021/07/06 11:01:37;;;;;;;1.40;1.00;;;;;;;25.04;94.72;99958.47;4988415;28;20308;-77
2021/07/06 11:04:12;;;;;;;1.20;1.10;;;;;;;24.59;98.06;99971.88;4975185;28;20186;-77
2021/07/06 11:06:43;;;;;;;2.00;1.00;;;;;;;24.23;100.00;99985.72;4977796;28;20324;-76
2021/07/06 11:09:29;;;;;;;2.88;1.20;;;;;;;24.31;100.00;99989.41;4974365;28;20229;-76
2021/07/06 11:12:31;;;;;;;2.20;1.20;;;;;;;24.17;100.00;100000.31;4972035;28;20311;-77
2021/07/06 11:15:12;;;;;;;1.45;1.20;;;;;;;24.09;100.00;100006.97;4990649;28;20192;-76
2021/07/06 11:17:58;;;;;;;3.17;1.10;;;;;;;23.86;100.00;100011.78;4990274;28;20225;-77
2021/07/06 11:20:42;;;;;;;3.67;1.30;;;;;;;23.72;100.00;100019.91;4958296;28;20229;-77
2021/07/06 11:23:38;;;;;;;1.85;1.40;;;;;;;23.76;100.00;100031.06;4983503;28;20235;-76
2021/07/06 11:26:05;;;;;;;11.40;7.50;;;;;;;23.61;100.00;100041.16;4988731;28;20233;-80
2021/07/06 11:28:31;;;;;;;4.85;3.60;;;;;;;23.24;100.00;100019.09;4974221;28;20228;-78
2021/07/06 11:31:00;;;;;;;11.75;10.40;;;;;;;23.40;100.00;100022.53;4964292;28;20614;-77
2021/07/06 11:33:36;;;;;;;1.60;1.50;;;;;;;23.52;100.00;100036.22;4972574;28;20210;-76